Главная страница
METAR-TAF:

METAR-TAF

Аэропорты :

Хёугесунн, Норвегия

широта: 59-21N, долгота: 005-13E, высота над уровнем моря: 2 м

Текущие метеонаблюдения

Эта сводка был подготовлена 15 минут назад, в 14:50 UTC
Ветер 7 Узел от восточно-северо-восточный
Температура 5°C
Влажность 65%
Давление 1019 hPa
Видимость 10 км и более
Нет облачности ниже 1500 м, и нет кучево-дождевой облачности

METAR: ENHD 151450Z 07007KT CAVOK 05/M01 Q1019

Время: 16:05 (15:05 UTC)

Прогноз

Эта сводка был подготовлена 1 час и 5 минут назад, в 14:00 UTC
Прогноз действительный с 15-го 15 UTC до 15-го 21 UTC
Ветер 8 Узел от восточный
Видимость 10 км и более
Нет облачности ниже 1500 м, и нет кучево-дождевой облачности

TAF: ENHD 151400Z 1515/1521 08008KT CAVOK

Метеонаблюдения и прогнозы для более 4000 аэропортов (сводки METAR и TAF).

Имеющиеся станции представлены на карте желтыми и красными точками.

Чтобы увидеть название станции, наведите на нее мышь.

Затем щелкните, чтобы увидеть метеонаблюдения и метеопрогнозы.

Управление картой: чтобы увеличить масштаб, щелкните зеленые кнопки с черным крестиком; чтобы уменьшить масштаб, щелкните зеленую кнопку с тире; для просмотра соседних карт щелкайте зеленые стрелки.


METAR-TAF: